Time;durP1;ratioP1;P1;durP2;ratioP2;P2;SDS_P1;SDS_P2;PMS_P1;PMS_P2;Temp;Humidity;BMP_temperature;BMP_pressure;BME280_temperature;BME280_humidity;BME280_pressure;Samples;Min_cycle;Max_cycle;Signal;HPM_P1;HPM_P2
2023/05/22 00:00:09;;;;;;;30.27;16.17;;;;;;;-143.48;100.00;118439.88;5036316;28;20108;-33
2023/05/22 00:02:37;;;;;;;28.50;15.68;;;;;;;-143.48;100.00;118439.88;5054638;28;20029;-34
2023/05/22 00:05:04;;;;;;;28.92;15.50;;;;;;;-143.48;100.00;118439.88;5054117;28;20020;-33
2023/05/22 00:07:29;;;;;;;39.80;16.73;;;;;;;-143.48;100.00;118439.88;5054282;28;20032;-33
2023/05/22 00:09:55;;;;;;;37.28;16.23;;;;;;;-143.48;99.69;118439.88;5054238;28;20455;-33
2023/05/22 00:12:20;;;;;;;27.10;15.68;;;;;;;-143.48;99.70;118439.88;5054191;28;20074;-33
2023/05/22 00:14:45;;;;;;;27.85;15.50;;;;;;;-143.48;99.76;118439.88;5053660;28;20049;-33
2023/05/22 00:17:13;;;;;;;29.38;16.10;;;;;;;-143.48;99.70;118439.88;5053875;28;20028;-33
2023/05/22 00:19:39;;;;;;;28.27;15.05;;;;;;;-143.48;99.27;118439.88;5054090;28;20025;-33
2023/05/22 00:22:04;;;;;;;27.35;15.32;;;;;;;-143.48;99.78;118439.88;5054080;28;20434;-33
2023/05/22 00:24:30;;;;;;;29.95;15.63;;;;;;;-143.48;99.10;118439.88;5053897;28;20112;-33
2023/05/22 00:26:56;;;;;;;30.80;15.48;;;;;;;-143.48;100.00;118439.88;5035487;28;20033;-33
2023/05/22 00:29:21;;;;;;;31.65;15.68;;;;;;;-143.48;100.00;118439.88;5053459;28;20021;-33
2023/05/22 00:31:47;;;;;;;32.70;16.42;;;;;;;-143.48;100.00;118439.88;5053807;28;20025;-33
2023/05/22 00:34:12;;;;;;;31.60;16.73;;;;;;;-143.48;100.00;118439.88;5053736;28;20031;-33
2023/05/22 00:36:37;;;;;;;30.63;16.08;;;;;;;-143.48;100.00;118439.88;5053507;28;20017;-33
2023/05/22 00:39:03;;;;;;;44.50;17.42;;;;;;;-143.48;100.00;118439.88;5054084;28;20040;-33
2023/05/22 00:41:29;;;;;;;38.75;17.40;;;;;;;-143.48;100.00;118439.88;5053467;28;20066;-34
2023/05/22 00:43:54;;;;;;;33.67;17.35;;;;;;;-143.48;100.00;118439.88;5053748;28;20029;-33
2023/05/22 00:46:20;;;;;;;34.75;18.05;;;;;;;-143.48;100.00;118439.88;5052033;28;20055;-33
2023/05/22 00:48:46;;;;;;;30.95;18.70;;;;;;;-143.48;100.00;118439.88;5053416;28;20020;-33
2023/05/22 00:51:11;;;;;;;33.60;18.08;;;;;;;-143.48;100.00;118439.88;5053520;28;20052;-33
2023/05/22 00:53:37;;;;;;;35.42;18.13;;;;;;;-143.48;100.00;118439.88;5052216;28;20021;-34
2023/05/22 00:56:02;;;;;;;35.60;19.40;;;;;;;-143.48;100.00;118439.88;5051018;28;20510;-33
2023/05/22 00:58:28;;;;;;;34.17;18.65;;;;;;;-143.48;100.00;118439.88;5051153;28;20025;-33
2023/05/22 01:00:54;;;;;;;37.28;18.70;;;;;;;-143.48;100.00;118439.88;5033650;28;20040;-33
2023/05/22 01:03:24;;;;;;;34.15;18.45;;;;;;;-143.48;100.00;118439.88;5051111;28;20029;-33
2023/05/22 01:05:50;;;;;;;36.65;18.63;;;;;;;-143.48;100.00;118439.88;5051337;28;20092;-34
2023/05/22 01:08:15;;;;;;;32.10;19.23;;;;;;;-143.48;100.00;118439.88;5050950;28;20112;-33
2023/05/22 01:10:41;;;;;;;33.25;18.13;;;;;;;-143.48;100.00;118439.88;5051042;28;20028;-33
2023/05/22 01:13:37;;;;;;;32.65;18.27;;;;;;;-143.48;100.00;118439.88;5051176;28;20494;-31
2023/05/22 01:16:28;;;;;;;33.40;18.20;;;;;;;-143.48;100.00;118439.88;5050775;28;20530;-32
2023/05/22 01:19:30;;;;;;;32.90;18.75;;;;;;;-143.48;100.00;118439.88;5051404;28;20025;-32
2023/05/22 01:22:11;;;;;;;30.50;19.33;;;;;;;-143.48;100.00;118439.88;5053354;28;20025;-32
2023/05/22 01:24:59;;;;;;;35.85;19.67;;;;;;;-143.48;100.00;118439.88;5053022;28;20029;-33
2023/05/22 01:27:36;;;;;;;35.90;18.63;;;;;;;-143.48;100.00;118439.88;5053270;28;20094;-32
2023/05/22 01:30:13;;;;;;;34.13;19.20;;;;;;;-143.48;100.00;118439.88;5052821;28;20033;-32
2023/05/22 01:32:42;;;;;;;36.65;18.33;;;;;;;-143.48;100.00;118439.88;5052865;28;20029;-32
2023/05/22 01:35:10;;;;;;;34.65;18.83;;;;;;;-143.48;100.00;118439.88;5053663;28;20021;-32
2023/05/22 01:37:37;;;;;;;41.30;19.38;;;;;;;-143.48;100.00;118439.88;5053157;28;20100;-32
2023/05/22 01:40:05;;;;;;;34.53;18.83;;;;;;;-143.48;100.00;118439.88;5036369;28;20032;-32
2023/05/22 01:42:30;;;;;;;32.20;18.30;;;;;;;-143.48;100.00;118439.88;5056933;28;20056;-32
2023/05/22 01:44:56;;;;;;;39.40;19.75;;;;;;;-143.48;100.00;118439.88;5057233;28;20021;-33
2023/05/22 01:47:22;;;;;;;37.25;19.48;;;;;;;-143.48;100.00;118439.88;5057228;28;20094;-33
2023/05/22 01:49:47;;;;;;;34.08;19.20;;;;;;;-143.48;100.00;118439.88;5057195;28;20341;-32
2023/05/22 01:52:28;;;;;;;33.30;18.67;;;;;;;-143.48;100.00;118439.88;5056462;28;20075;-33
2023/05/22 01:55:16;;;;;;;42.13;19.90;;;;;;;-143.48;100.00;118439.88;5056759;28;20025;-32
2023/05/22 01:58:01;;;;;;;38.83;18.90;;;;;;;-143.48;100.00;118439.88;5038570;28;20025;-32
2023/05/22 02:00:28;;;;;;;36.58;20.52;;;;;;;-143.48;100.00;118439.88;5056683;28;20028;-32
2023/05/22 02:03:04;;;;;;;41.53;19.70;;;;;;;-143.48;100.00;118439.88;5056498;28;20028;-32
2023/05/22 02:05:34;;;;;;;37.03;19.92;;;;;;;-143.48;100.00;118439.88;5056335;28;20025;-33
2023/05/22 02:08:01;;;;;;;40.28;20.30;;;;;;;-143.48;100.00;118439.88;5056634;28;20028;-33
2023/05/22 02:10:27;;;;;;;44.92;20.08;;;;;;;-143.48;100.00;118439.88;5056248;28;20051;-32
2023/05/22 02:12:53;;;;;;;39.95;19.85;;;;;;;-143.48;100.00;118439.88;5056125;28;20029;-32
2023/05/22 02:15:20;;;;;;;46.10;20.80;;;;;;;-143.48;100.00;118439.88;5056288;28;20537;-33
2023/05/22 02:17:48;;;;;;;45.42;21.17;;;;;;;-143.48;100.00;118439.88;5056379;28;20029;-32
2023/05/22 02:20:14;;;;;;;41.70;20.77;;;;;;;-143.48;100.00;118439.88;5056320;28;20032;-33
2023/05/22 02:22:44;;;;;;;44.35;21.05;;;;;;;-143.48;100.00;118439.88;5055994;28;20048;-32
2023/05/22 02:25:15;;;;;;;40.28;19.75;;;;;;;-143.48;100.00;118439.88;5056152;28;20017;-32
2023/05/22 02:27:45;;;;;;;43.30;20.48;;;;;;;-143.48;100.00;118439.88;5056197;28;20025;-32
2023/05/22 02:30:12;;;;;;;44.42;21.00;;;;;;;-143.48;100.00;118439.88;5056113;28;20028;-32
2023/05/22 02:32:38;;;;;;;43.28;20.25;;;;;;;-143.48;100.00;118439.88;5056068;28;20365;-33
2023/05/22 02:35:04;;;;;;;39.88;19.83;;;;;;;-143.48;100.00;118439.88;5055867;28;20079;-32
2023/05/22 02:37:29;;;;;;;38.25;19.70;;;;;;;-143.48;100.00;118439.88;5055649;28;20068;-32
2023/05/22 02:39:55;;;;;;;39.72;19.05;;;;;;;-143.48;100.00;118439.88;5055913;28;20028;-32
2023/05/22 02:42:20;;;;;;;40.60;19.08;;;;;;;-143.48;100.00;118439.88;5055664;28;20068;-32
2023/05/22 02:44:46;;;;;;;32.85;18.90;;;;;;;-143.48;100.00;118439.88;5055576;28;20025;-32
2023/05/22 02:47:11;;;;;;;36.90;18.60;;;;;;;-143.48;100.00;118439.88;5055745;28;20025;-32
2023/05/22 02:49:36;;;;;;;35.70;19.45;;;;;;;-143.48;100.00;118439.88;5055509;28;20025;-32
2023/05/22 02:52:02;;;;;;;33.13;17.55;;;;;;;-143.48;100.00;118439.88;5055253;28;20041;-32
2023/05/22 02:54:27;;;;;;;32.05;16.45;;;;;;;-143.48;100.00;118439.88;5037839;28;20032;-32
2023/05/22 02:56:52;;;;;;;29.85;17.13;;;;;;;-143.48;100.00;118439.88;5055288;28;20448;-32
2023/05/22 02:59:18;;;;;;;32.03;17.90;;;;;;;-143.48;100.00;118439.88;5055495;28;20025;-32
2023/05/22 03:01:44;;;;;;;34.08;17.38;;;;;;;-143.48;100.00;118439.88;5055346;28;20380;-32
2023/05/22 03:04:11;;;;;;;32.03;18.10;;;;;;;-143.48;100.00;118439.88;5037370;28;20035;-32
2023/05/22 03:06:37;;;;;;;34.80;17.35;;;;;;;-143.48;100.00;118439.88;5055777;28;20096;-32
2023/05/22 03:09:03;;;;;;;33.78;17.77;;;;;;;-143.48;100.00;118439.88;5055049;28;20052;-32
2023/05/22 03:11:29;;;;;;;27.17;16.77;;;;;;;-143.48;100.00;118439.88;5055130;28;20082;-32
2023/05/22 03:13:54;;;;;;;31.10;17.83;;;;;;;-143.48;100.00;118439.88;5055555;28;20388;-32
2023/05/22 03:16:20;;;;;;;30.33;17.48;;;;;;;-143.48;100.00;118439.88;5054848;28;20041;-32
2023/05/22 03:18:45;;;;;;;32.42;17.27;;;;;;;-143.48;100.00;118439.88;5037454;28;20029;-32
2023/05/22 03:21:10;;;;;;;30.67;17.17;;;;;;;-143.48;100.00;118439.88;5055093;28;20028;-32
2023/05/22 03:23:36;;;;;;;35.20;18.42;;;;;;;-143.48;100.00;118439.88;5054870;28;20020;-33
2023/05/22 03:26:01;;;;;;;33.78;17.48;;;;;;;-143.48;100.00;118439.88;5036979;28;20047;-32
2023/05/22 03:28:26;;;;;;;38.00;18.17;;;;;;;-143.48;100.00;118439.88;5054801;28;20028;-32
2023/05/22 03:30:51;;;;;;;35.33;19.08;;;;;;;-143.48;100.00;118439.88;5054867;28;20048;-32
2023/05/22 03:33:17;;;;;;;31.10;17.83;;;;;;;-143.48;100.00;118439.88;5054572;28;20027;-32
2023/05/22 03:35:43;;;;;;;27.10;17.63;;;;;;;-143.48;100.00;118439.88;5054814;28;20040;-32
2023/05/22 03:38:09;;;;;;;38.00;19.00;;;;;;;-143.48;100.00;118439.88;5054558;28;20025;-32
2023/05/22 03:40:34;;;;;;;37.33;18.35;;;;;;;-143.48;100.00;118439.88;5055274;28;20167;-32
2023/05/22 03:42:59;;;;;;;30.27;17.73;;;;;;;-143.48;100.00;118439.88;5054699;28;20052;-32
2023/05/22 03:45:24;;;;;;;34.38;17.58;;;;;;;-143.48;100.00;118439.88;5054665;28;20020;-32
2023/05/22 03:47:50;;;;;;;28.25;16.55;;;;;;;-143.48;100.00;118439.88;5054340;28;20021;-33
2023/05/22 03:50:15;;;;;;;32.13;18.98;;;;;;;-143.48;100.00;118439.88;5054602;28;20029;-32
2023/05/22 03:52:41;;;;;;;33.17;18.50;;;;;;;-143.48;100.00;118439.88;5054230;28;20518;-32
2023/05/22 03:55:07;;;;;;;35.00;18.90;;;;;;;-143.48;100.00;118439.88;5054148;28;20452;-32
2023/05/22 03:57:32;;;;;;;36.65;18.40;;;;;;;-143.48;100.00;118439.88;5054503;28;20460;-32
2023/05/22 04:00:05;;;;;;;29.83;17.92;;;;;;;-143.48;100.00;118439.88;5054383;28;20085;-31
2023/05/22 04:02:31;;;;;;;30.98;17.35;;;;;;;-143.48;100.00;118439.88;5053215;28;20025;-33
2023/05/22 04:04:56;;;;;;;32.72;17.50;;;;;;;-143.48;100.00;118439.88;5054227;28;20036;-32
2023/05/22 04:07:21;;;;;;;29.90;17.10;;;;;;;-143.48;100.00;118439.88;5054316;28;20032;-32
2023/05/22 04:09:46;;;;;;;36.72;18.80;;;;;;;-143.48;100.00;118439.88;5053981;28;20457;-32
2023/05/22 04:12:12;;;;;;;42.45;19.40;;;;;;;-143.48;100.00;118439.88;5054423;28;20054;-32
2023/05/22 04:14:37;;;;;;;33.45;19.23;;;;;;;-143.48;100.00;118439.88;5054248;28;20052;-32
2023/05/22 04:17:02;;;;;;;36.25;19.45;;;;;;;-143.48;100.00;118439.88;5053786;28;20460;-32
2023/05/22 04:19:28;;;;;;;36.42;19.25;;;;;;;-143.48;100.00;118439.88;5054022;28;20422;-32
2023/05/22 04:21:54;;;;;;;37.33;19.15;;;;;;;-143.48;100.00;118439.88;5054053;28;20482;-32
2023/05/22 04:24:21;;;;;;;33.60;19.88;;;;;;;-143.48;100.00;118439.88;5053748;28;20357;-32
2023/05/22 04:26:48;;;;;;;37.92;19.95;;;;;;;-143.48;100.00;118439.88;5054084;28;20025;-32
2023/05/22 04:29:13;;;;;;;41.95;20.50;;;;;;;-143.48;100.00;118439.88;5053648;28;20582;-33
2023/05/22 04:31:38;;;;;;;44.92;21.00;;;;;;;-143.48;100.00;118439.88;5053889;28;20020;-32
2023/05/22 04:34:04;;;;;;;46.45;20.77;;;;;;;-143.48;100.00;118439.88;5053525;28;20044;-33
2023/05/22 04:36:30;;;;;;;35.72;20.58;;;;;;;-143.48;100.00;118439.88;5053406;28;20498;-32
2023/05/22 04:38:55;;;;;;;37.88;20.85;;;;;;;-143.48;100.00;118439.88;5053536;28;20028;-32
2023/05/22 04:41:26;;;;;;;37.08;20.08;;;;;;;-143.48;100.00;118439.88;5053483;28;20033;-32
2023/05/22 04:43:53;;;;;;;30.58;19.55;;;;;;;-143.48;100.00;118439.88;5053468;28;20365;-32
2023/05/22 04:46:19;;;;;;;32.40;20.45;;;;;;;-143.48;100.00;118439.88;5053592;28;20361;-32
2023/05/22 04:48:46;;;;;;;39.58;19.02;;;;;;;-143.48;100.00;118439.88;5053551;28;20032;-32
2023/05/22 04:51:13;;;;;;;36.63;20.05;;;;;;;-143.48;100.00;118439.88;5053681;28;20445;-33
2023/05/22 04:53:38;;;;;;;33.45;19.83;;;;;;;-143.48;100.00;118439.88;5053582;28;20357;-32
2023/05/22 04:56:04;;;;;;;38.22;19.70;;;;;;;-143.48;100.00;118439.88;5053221;28;20032;-32
2023/05/22 04:58:30;;;;;;;32.28;19.33;;;;;;;-143.48;100.00;118439.88;5053097;28;20116;-33
2023/05/22 05:00:56;;;;;;;33.25;19.48;;;;;;;-143.48;100.00;118439.88;5053449;28;20109;-32
2023/05/22 05:03:22;;;;;;;32.15;18.25;;;;;;;-143.48;100.00;118439.88;5053524;28;20104;-32
2023/05/22 05:05:47;;;;;;;36.72;19.00;;;;;;;-143.48;100.00;118439.88;5053228;28;20464;-32
2023/05/22 05:08:13;;;;;;;34.92;19.02;;;;;;;-143.48;100.00;118439.88;5053205;28;20044;-32
2023/05/22 05:10:38;;;;;;;32.75;18.60;;;;;;;-143.48;100.00;118439.88;5052991;28;20029;-32
2023/05/22 05:13:03;;;;;;;37.70;19.60;;;;;;;-143.48;100.00;118439.88;5053197;28;20056;-33
2023/05/22 05:15:28;;;;;;;33.63;18.95;;;;;;;-143.48;100.00;118439.88;5056881;28;20136;-32
2023/05/22 05:17:54;;;;;;;33.90;18.58;;;;;;;-143.48;100.00;118439.88;5057554;28;20025;-32
2023/05/22 05:20:20;;;;;;;30.90;18.27;;;;;;;-143.48;100.00;118439.88;5057375;28;20032;-32
2023/05/22 05:22:45;;;;;;;31.02;17.90;;;;;;;-143.48;100.00;118439.88;5057153;28;20021;-32
2023/05/22 05:25:11;;;;;;;34.42;19.17;;;;;;;-143.48;100.00;118439.88;5057366;28;20108;-32
2023/05/22 05:27:36;;;;;;;35.97;18.98;;;;;;;-143.48;100.00;118439.88;5057265;28;20021;-32
2023/05/22 05:30:02;;;;;;;35.05;18.30;;;;;;;-143.48;100.00;118439.88;5057341;28;20020;-32
2023/05/22 05:32:29;;;;;;;35.38;17.85;;;;;;;-143.48;100.00;118439.88;5056562;28;20017;-32
2023/05/22 05:34:55;;;;;;;32.92;17.95;;;;;;;-143.48;100.00;118439.88;5057045;28;20068;-33
2023/05/22 05:37:20;;;;;;;34.67;18.02;;;;;;;-143.48;100.00;118439.88;5056995;28;20472;-32
2023/05/22 05:39:45;;;;;;;30.88;18.27;;;;;;;-143.48;100.00;118439.88;5057114;28;20367;-32
2023/05/22 05:42:11;;;;;;;32.28;17.83;;;;;;;-143.48;100.00;118439.88;5056770;28;20383;-32
2023/05/22 05:44:37;;;;;;;28.58;17.80;;;;;;;-143.48;100.00;118439.88;5057032;28;20116;-32
2023/05/22 05:47:02;;;;;;;35.33;17.90;;;;;;;-143.48;100.00;118439.88;5056673;28;20381;-32
2023/05/22 05:49:27;;;;;;;29.88;17.52;;;;;;;-143.48;91.19;118439.88;5056650;28;20040;-33
2023/05/22 05:51:53;;;;;;;26.02;16.70;;;;;;;-143.48;81.01;118439.88;5056852;28;20054;-33
2023/05/22 05:54:18;;;;;;;25.15;16.00;;;;;;;-143.48;77.87;118439.88;5056542;28;20031;-32
2023/05/22 05:56:43;;;;;;;26.65;15.00;;;;;;;-143.48;75.72;118439.88;5038623;28;20036;-32
2023/05/22 05:59:09;;;;;;;21.88;15.00;;;;;;;-143.48;75.28;118439.88;5056790;28;20056;-33
2023/05/22 06:01:34;;;;;;;23.25;14.90;;;;;;;-143.48;74.69;118439.88;5056733;28;20029;-32
2023/05/22 06:04:04;;;;;;;25.42;14.55;;;;;;;-143.48;73.61;118439.88;5056576;28;20056;-32
2023/05/22 06:06:34;;;;;;;24.92;14.48;;;;;;;-143.48;73.10;118439.88;5056121;28;20021;-32
2023/05/22 06:09:00;;;;;;;21.42;14.05;;;;;;;-143.48;73.61;118439.88;5055969;28;20135;-32
2023/05/22 06:11:25;;;;;;;19.92;13.57;;;;;;;-143.48;69.35;118439.88;5056141;28;20049;-33
2023/05/22 06:13:50;;;;;;;18.55;13.55;;;;;;;-143.48;70.38;118439.88;5056442;28;20024;-33
2023/05/22 06:16:16;;;;;;;19.27;13.43;;;;;;;-143.48;67.40;118439.88;5055797;28;20048;-32
2023/05/22 06:18:41;;;;;;;19.88;13.00;;;;;;;-143.48;68.39;118439.88;5056028;28;20104;-33
2023/05/22 06:21:08;;;;;;;18.92;13.50;;;;;;;-143.48;68.77;118439.88;5055130;28;20029;-33
2023/05/22 06:23:33;;;;;;;20.05;13.85;;;;;;;-143.48;66.83;118439.88;5056562;28;20075;-33
2023/05/22 06:25:58;;;;;;;21.58;13.85;;;;;;;-143.48;67.13;118439.88;5054769;28;20029;-34
2023/05/22 06:28:24;;;;;;;17.48;12.73;;;;;;;-143.48;66.30;118439.88;5055091;28;20112;-33
2023/05/22 06:30:49;;;;;;;21.13;13.02;;;;;;;-143.48;67.76;118439.88;5056202;28;20103;-33
2023/05/22 06:33:15;;;;;;;19.80;13.27;;;;;;;-143.48;67.11;118439.88;5055873;28;20410;-33
2023/05/22 06:35:41;;;;;;;23.70;13.00;;;;;;;-143.48;68.79;118439.88;5056074;28;20030;-33
2023/05/22 06:38:06;;;;;;;19.27;13.35;;;;;;;-143.48;65.28;118439.88;5055597;28;20021;-33
2023/05/22 06:40:31;;;;;;;18.63;12.43;;;;;;;-143.48;64.22;118439.88;5037808;28;20029;-34
2023/05/22 06:42:58;;;;;;;21.42;12.90;;;;;;;-143.48;65.79;118439.88;5055297;28;20025;-33
2023/05/22 06:45:23;;;;;;;19.17;13.85;;;;;;;-143.48;64.36;118439.88;5055578;28;20020;-33
2023/05/22 06:47:52;;;;;;;21.50;13.73;;;;;;;-143.48;64.91;118439.88;5055769;28;20024;-33
2023/05/22 06:50:19;;;;;;;20.80;13.88;;;;;;;-143.48;67.66;118439.88;5055707;28;20357;-33
2023/05/22 06:52:44;;;;;;;20.48;13.98;;;;;;;-143.48;67.63;118439.88;5055725;28;20191;-33
2023/05/22 06:55:10;;;;;;;25.90;13.05;;;;;;;-143.48;62.79;118439.88;5055581;28;20100;-33
2023/05/22 06:57:36;;;;;;;19.55;13.57;;;;;;;-143.48;64.81;118439.88;5055575;28;20029;-33
2023/05/22 07:00:01;;;;;;;19.05;13.02;;;;;;;-143.48;63.63;118439.88;5037254;28;20081;-33
2023/05/22 07:02:27;;;;;;;19.48;13.57;;;;;;;-143.48;63.18;118439.88;5055235;28;20052;-37
2023/05/22 07:04:52;;;;;;;21.55;13.25;;;;;;;-143.48;63.75;118439.88;5055615;28;20142;-34
2023/05/22 07:07:18;;;;;;;19.17;13.57;;;;;;;-143.48;67.23;118439.88;5055393;28;20055;-33
2023/05/22 07:09:43;;;;;;;21.02;13.25;;;;;;;-143.48;67.36;118439.88;5055127;28;20035;-34
2023/05/22 07:12:09;;;;;;;21.30;13.18;;;;;;;-143.48;67.46;118439.88;5055076;28;20104;-33
2023/05/22 07:14:34;;;;;;;21.13;12.65;;;;;;;-143.48;67.56;118439.88;5055048;28;20102;-33
2023/05/22 07:17:00;;;;;;;14.20;11.48;;;;;;;-143.48;67.02;118439.88;5055486;28;20029;-34
2023/05/22 07:19:25;;;;;;;19.25;11.93;;;;;;;-143.48;66.06;118439.88;5055711;28;20028;-33
2023/05/22 07:21:50;;;;;;;15.68;11.98;;;;;;;-143.48;67.74;118439.88;5055387;28;20067;-33
2023/05/22 07:24:16;;;;;;;19.10;12.13;;;;;;;-143.48;68.73;118439.88;5054855;28;20024;-33
2023/05/22 07:26:45;;;;;;;19.50;12.15;;;;;;;-143.48;67.98;118439.88;5055077;28;20139;-33
2023/05/22 07:29:10;;;;;;;17.10;11.40;;;;;;;-143.48;67.41;118439.88;5055064;28;20459;-33
2023/05/22 07:31:37;;;;;;;19.70;11.35;;;;;;;-143.48;64.43;118439.88;5054659;28;20104;-33
2023/05/22 07:34:03;;;;;;;17.88;11.23;;;;;;;-143.48;63.56;118439.88;5054659;28;20419;-34
2023/05/22 07:36:28;;;;;;;16.70;10.98;;;;;;;-143.48;63.04;118439.88;5054176;28;20024;-33
2023/05/22 07:38:53;;;;;;;17.65;10.70;;;;;;;-143.48;64.74;118439.88;5054674;28;20035;-33
2023/05/22 07:41:19;;;;;;;16.30;10.60;;;;;;;-143.48;61.90;118439.88;5054628;28;20462;-33
2023/05/22 07:43:44;;;;;;;16.98;11.98;;;;;;;-143.48;64.49;118439.88;5054457;28;20154;-34
2023/05/22 07:46:10;;;;;;;18.10;11.57;;;;;;;-143.48;64.42;118439.88;5054747;28;20056;-33
2023/05/22 07:48:35;;;;;;;15.40;11.10;;;;;;;-143.48;63.95;118439.88;5054408;28;20100;-33
2023/05/22 07:51:02;;;;;;;16.58;11.63;;;;;;;-143.48;61.39;118439.88;5054523;28;20029;-34
2023/05/22 07:53:28;;;;;;;16.08;11.88;;;;;;;-143.48;63.12;118439.88;5054346;28;20059;-34
2023/05/22 07:55:53;;;;;;;18.40;12.45;;;;;;;-143.48;63.90;118439.88;5053821;28;20025;-33
2023/05/22 07:58:18;;;;;;;14.43;11.50;;;;;;;-143.48;63.92;118439.88;5053998;28;20083;-34
2023/05/22 08:00:44;;;;;;;14.32;10.75;;;;;;;-143.48;60.51;118439.88;5054382;28;20029;-33
2023/05/22 08:03:09;;;;;;;21.40;12.00;;;;;;;-143.48;61.14;118439.88;5054280;28;20056;-33
2023/05/22 08:05:35;;;;;;;19.20;13.02;;;;;;;-143.48;60.31;118439.88;5053916;28;20037;-34
2023/05/22 08:08:01;;;;;;;17.90;12.55;;;;;;;-143.48;63.32;118439.88;5036222;28;20028;-37
2023/05/22 08:10:27;;;;;;;19.17;12.30;;;;;;;-143.48;61.64;118439.88;5053988;28;20107;-34
2023/05/22 08:12:52;;;;;;;19.80;12.82;;;;;;;-143.48;61.81;118439.88;5054188;28;20072;-34
2023/05/22 08:15:17;;;;;;;20.02;13.05;;;;;;;-143.48;60.08;118439.88;5053201;28;20148;-37
2023/05/22 08:17:43;;;;;;;18.92;12.65;;;;;;;-143.48;64.50;118439.88;5033744;28;20040;-33
2023/05/22 08:20:09;;;;;;;17.55;12.73;;;;;;;-143.48;62.89;118439.88;5052877;28;20025;-34
2023/05/22 08:22:37;;;;;;;18.13;12.43;;;;;;;-143.48;59.79;118439.88;5053295;28;20368;-34
2023/05/22 08:25:03;;;;;;;20.95;13.27;;;;;;;-143.48;59.40;118439.88;5051894;28;20025;-34
2023/05/22 08:27:28;;;;;;;19.27;12.77;;;;;;;-143.48;61.05;118439.88;5053464;28;20036;-34
2023/05/22 08:29:53;;;;;;;19.45;12.90;;;;;;;-143.48;59.72;118439.88;5053640;28;20028;-33
2023/05/22 08:32:19;;;;;;;20.90;12.90;;;;;;;-143.48;58.96;118439.88;5053751;28;20034;-34
2023/05/22 08:34:45;;;;;;;19.80;13.43;;;;;;;-143.48;60.64;118439.88;5053532;28;20593;-34
2023/05/22 08:37:11;;;;;;;20.83;13.10;;;;;;;-143.48;59.74;118439.88;5053428;28;20052;-34
2023/05/22 08:39:36;;;;;;;19.10;13.45;;;;;;;-143.48;60.91;118439.88;5053647;28;20467;-35
2023/05/22 08:42:02;;;;;;;20.45;13.77;;;;;;;-143.48;60.27;118439.88;5053367;28;20028;-34
2023/05/22 08:44:27;;;;;;;18.98;14.10;;;;;;;-143.48;58.19;118439.88;5053504;28;20477;-34
2023/05/22 08:46:55;;;;;;;25.02;13.02;;;;;;;-143.48;58.55;118439.88;5052720;28;20407;-34
2023/05/22 08:49:21;;;;;;;19.90;13.35;;;;;;;-143.48;56.05;118439.88;5051934;28;20056;-34
2023/05/22 08:51:51;;;;;;;17.98;12.23;;;;;;;-143.48;54.87;118439.88;5053367;28;20383;-38
2023/05/22 08:54:21;;;;;;;19.27;13.07;;;;;;;-143.48;56.21;118439.88;5053467;28;20037;-34
2023/05/22 08:56:48;;;;;;;20.05;12.48;;;;;;;-143.48;55.92;118439.88;5053054;28;20025;-34
2023/05/22 08:59:14;;;;;;;20.80;13.40;;;;;;;-143.48;57.67;118439.88;5053153;28;20033;-34
2023/05/22 09:01:40;;;;;;;19.63;12.80;;;;;;;-143.48;58.98;118439.88;5052884;28;20029;-34
2023/05/22 09:04:05;;;;;;;20.95;14.80;;;;;;;-143.48;59.71;118439.88;5053123;28;20040;-34
2023/05/22 09:06:31;;;;;;;20.17;13.85;;;;;;;-143.48;58.90;118439.88;5051175;28;20372;-34
2023/05/22 09:08:58;;;;;;;20.85;14.25;;;;;;;-143.48;60.70;118439.88;5050864;28;20024;-34
2023/05/22 09:11:23;;;;;;;20.25;14.02;;;;;;;-143.48;57.74;118439.88;5050805;28;20029;-34
2023/05/22 09:13:50;;;;;;;21.88;13.65;;;;;;;-143.48;57.93;118439.88;5050862;28;20032;-35
2023/05/22 09:16:16;;;;;;;19.30;14.10;;;;;;;-143.48;62.06;118439.88;5050818;28;20091;-34
2023/05/22 09:18:42;;;;;;;19.45;14.30;;;;;;;-143.48;58.63;118439.88;5051353;28;20032;-34
2023/05/22 09:21:08;;;;;;;17.48;13.50;;;;;;;-143.48;56.00;118439.88;5052517;28;20379;-34
2023/05/22 09:23:34;;;;;;;22.17;14.20;;;;;;;-143.48;54.96;118439.88;5052970;28;20518;-33
2023/05/22 09:26:01;;;;;;;20.42;13.75;;;;;;;-143.48;58.04;118439.88;5053300;28;20104;-34
2023/05/22 09:28:32;;;;;;;17.80;12.63;;;;;;;-143.48;53.96;118439.88;5053278;28;20033;-34
2023/05/22 09:30:57;;;;;;;17.75;12.18;;;;;;;-143.48;54.04;118439.88;5053122;28;20029;-34
2023/05/22 09:33:23;;;;;;;19.83;13.63;;;;;;;-143.48;53.85;118439.88;5052784;28;20025;-33
2023/05/22 09:35:52;;;;;;;18.65;13.23;;;;;;;-143.48;57.13;118439.88;5052838;28;20387;-34
2023/05/22 09:38:17;;;;;;;22.08;13.70;;;;;;;-143.48;58.31;118439.88;5052823;28;20074;-33
2023/05/22 09:40:43;;;;;;;22.60;12.57;;;;;;;-143.48;58.18;118439.88;5053205;28;20025;-33
2023/05/22 09:43:09;;;;;;;17.35;13.10;;;;;;;-143.48;56.25;118439.88;5052878;28;20425;-33
2023/05/22 09:45:35;;;;;;;20.27;12.73;;;;;;;-143.48;55.89;118439.88;5053044;28;20021;-33
2023/05/22 09:48:04;;;;;;;19.58;12.80;;;;;;;-143.48;55.73;118439.88;5053038;28;20028;-33
2023/05/22 09:50:33;;;;;;;21.52;12.40;;;;;;;-143.48;51.80;118439.88;5052975;28;20143;-33
2023/05/22 09:53:02;;;;;;;22.38;11.68;;;;;;;-143.48;51.13;118439.88;5052728;28;20036;-33
2023/05/22 09:55:28;;;;;;;16.63;10.38;;;;;;;-143.48;51.21;118439.88;5052845;28;20033;-33
2023/05/22 09:57:55;;;;;;;20.02;11.10;;;;;;;-143.48;50.52;118439.88;5052980;28;20021;-33
2023/05/22 10:00:22;;;;;;;23.63;12.00;;;;;;;-143.48;50.31;118439.88;5053003;28;20108;-33
2023/05/22 10:02:52;;;;;;;16.33;10.68;;;;;;;-143.48;50.66;118439.88;5056647;28;20024;-34
2023/05/22 10:05:22;;;;;;;20.77;9.88;;;;;;;-143.48;50.15;118439.88;5056901;28;20025;-33
2023/05/22 10:07:56;;;;;;;17.25;10.45;;;;;;;-143.48;48.40;118439.88;5055869;28;20032;-33
2023/05/22 10:10:24;;;;;;;18.73;10.10;;;;;;;-143.48;48.55;118439.88;5056218;28;20021;-33
2023/05/22 10:13:00;;;;;;;15.77;9.27;;;;;;;-143.48;45.98;118439.88;5056822;28;20387;-33
2023/05/22 10:15:26;;;;;;;16.52;9.10;;;;;;;-143.48;46.83;118439.88;5056028;28;20045;-35
2023/05/22 10:17:51;;;;;;;18.10;9.93;;;;;;;-143.48;47.00;118439.88;5038343;28;20151;-35
2023/05/22 10:20:18;;;;;;;16.92;9.07;;;;;;;-143.48;47.77;118439.88;5056367;28;20024;-35
2023/05/22 10:22:45;;;;;;;19.70;9.50;;;;;;;-143.48;47.91;118439.88;5056308;28;20017;-34
2023/05/22 10:25:11;;;;;;;14.40;9.40;;;;;;;-143.48;46.54;118439.88;5055087;28;20036;-33
2023/05/22 10:27:37;;;;;;;16.35;10.50;;;;;;;-143.48;50.59;118439.88;5053739;28;20029;-33
2023/05/22 10:30:20;;;;;;;18.67;10.02;;;;;;;-143.48;50.63;118439.88;5054518;28;20519;-35
2023/05/22 10:32:55;;;;;;;15.60;9.57;;;;;;;-143.48;48.82;118439.88;5053706;28;20029;-35
2023/05/22 10:35:28;;;;;;;20.10;9.82;;;;;;;-143.48;48.75;118439.88;5053867;28;20032;-34
2023/05/22 10:38:17;;;;;;;24.75;9.32;;;;;;;-143.48;47.40;118439.88;5053977;28;20384;-34
2023/05/22 10:40:44;;;;;;;15.38;8.48;;;;;;;-143.48;48.09;118439.88;5054785;28;20024;-34
2023/05/22 10:43:10;;;;;;;19.05;9.73;;;;;;;-143.48;48.03;118439.88;5055853;28;20031;-34
2023/05/22 10:45:35;;;;;;;18.30;9.43;;;;;;;-143.48;46.59;118439.88;5055576;28;20024;-34
2023/05/22 10:48:05;;;;;;;15.32;9.32;;;;;;;-143.48;52.23;118439.88;5056249;28;20021;-34